Cape May Court House, NJ

7:36 AM EDT on June 02, 2015 (GMT -0400)
Easy St | | Change Station
CLOSE
Current Station
Personal Weather Station
Location: South Dennis, NJ
Elevation: 36 ft
Nearby Weather Stations

Elev 36 ft 39.16 °N, 74.82 °W | Updated 9 minutes ago

Overcast
Overcast
57.2 °F
Feels Like 57.2 °F
N
1.7
Wind Variable Wind from North

Today
High -- | Low -- °F
--% Chance of Precip.
Yesterday
High -- | Low -- °F
Precip. -- in
5:34 AM 8:19 PM
Full, 100% visible
Pressure 30.05 in
Visibility 2.5 miles
Clouds Overcast 300 ft
Dew Point 56 °F
Humidity 96%
Rainfall -999.00 in
Snow Depth Not available.
UV 0 out of 12
Pollen .90 out of 12
Air Quality Not available.
Flu Activity Sporadic
METAR KWWD 021115Z AUTO 04008KT 2 1/2SM OVC003 15/12 A3005 RMK AO1

More Conditions Fewer Conditions

Pressure 30.05 in
Visibility 2.5 miles
Clouds Overcast 300 ft
Dew Point 56 °F
Humidity 96%
Rainfall -999.00 in
Snow Depth Not available.
UV 0 out of 12
Pollen .90 out of 12
Air Quality Not available.
Flu Activity Sporadic
METAR KWWD 021115Z AUTO 04008KT 2 1/2SM OVC003 15/12 A3005 RMK AO1

More Conditions Fewer Conditions

Nowcast | as of 5:54 am EDT on June 2, 2015

Between now and 800 am, scattered rain showers will affect northeastern Maryland, Delaware, southern New Jersey and the adjacent coastal waters. Rainfall amounts up to a tenth of an inch are possible.

×

10-Day Weather Forecast

Almanac

Astronomy

Jun. 02, 2015 Rise Set
Actual Time
Civil Twilight
Nautical Twilight
Astronomical Twilight
Moon
Length of Visible Light
Length of Day
Tomorrow will be .
, % of the Moon is Illuminated

Today's Extremes

State Highs State Lows

Community

WunderPhotos

Upload Photos

1,825,913 photos uploaded!

WunderBlogs® & News

Nearby

Air Quality

  Air Quality AQ Index Pollutant
Not available.

Snow Depth

Station Depth Elevation

Earthquake Activity

City Distance Mag. Time & Date
Minimum magnitude displayed is 2.5.

Coastal Water Temperatures

Place Temperature

Stations

Nearby Weather Stations

Station Location Temp. Windchill Dew Point Humidity Wind Precip. Elev Updated Type